createdAt,value
2019-04-10T00:00:59.230Z,12.33
2019-04-10T00:03:33.628Z,11.40
2019-04-10T00:06:02.812Z,11.73
2019-04-10T00:08:32.676Z,12.73
2019-04-10T00:11:02.706Z,12.60
2019-04-10T00:13:32.751Z,12.33
2019-04-10T00:16:03.581Z,12.90
2019-04-10T00:18:33.835Z,11.60
2019-04-10T00:21:04.974Z,13.20
2019-04-10T00:23:35.337Z,12.13
2019-04-10T00:26:05.586Z,11.57
2019-04-10T00:28:35.904Z,12.27
2019-04-10T00:31:05.798Z,11.80
2019-04-10T00:33:36.674Z,10.57
2019-04-10T00:36:06.618Z,11.53
2019-04-10T00:38:36.461Z,11.83
2019-04-10T00:41:06.398Z,11.77
2019-04-10T00:43:37.113Z,10.47
2019-04-10T00:46:08.108Z,11.37
2019-04-10T00:48:38.134Z,10.57
2019-04-10T00:51:08.880Z,10.83
2019-04-10T00:53:38.907Z,11.10
2019-04-10T00:56:08.751Z,10.73
2019-04-10T00:58:39.543Z,12.43
2019-04-10T01:01:09.726Z,12.50
2019-04-10T01:03:43.170Z,12.33
2019-04-10T01:06:14.114Z,13.43
2019-04-10T01:08:44.734Z,13.27
2019-04-10T01:11:15.139Z,13.30
2019-04-10T01:13:45.541Z,12.50
2019-04-10T01:16:17.795Z,12.53
2019-04-10T01:18:47.918Z,14.00
2019-04-10T01:21:18.070Z,13.87
2019-04-10T01:23:49.077Z,13.47
2019-04-10T01:26:19.199Z,14.20
2019-04-10T01:28:49.270Z,13.87
2019-04-10T01:31:20.037Z,13.50
2019-04-10T01:33:50.417Z,13.47
2019-04-10T01:36:20.707Z,13.63
2019-04-10T01:38:51.745Z,14.13
2019-04-10T01:41:23.806Z,13.80
2019-04-10T01:43:53.856Z,15.77
2019-04-10T01:46:24.397Z,15.07
2019-04-10T01:48:55.445Z,14.90
2019-04-10T01:51:25.623Z,15.47
2019-04-10T01:53:56.549Z,16.27
2019-04-10T01:56:31.442Z,17.17
2019-04-10T01:58:59.251Z,15.50
2019-04-10T02:01:32.775Z,17.13
2019-04-10T02:04:02.766Z,17.57
2019-04-10T02:06:33.842Z,15.93
2019-04-10T02:09:04.657Z,16.80
2019-04-10T02:11:34.540Z,16.63
2019-04-10T02:14:05.638Z,14.87
2019-04-10T02:16:35.544Z,14.67
2019-04-10T02:19:06.023Z,15.53
2019-04-10T02:21:36.104Z,15.43
2019-04-10T02:24:07.048Z,14.20
2019-04-10T02:26:38.051Z,14.57
2019-04-10T02:29:09.212Z,13.73
2019-04-10T02:31:39.572Z,14.90
2019-04-10T02:34:09.742Z,14.00
2019-04-10T02:36:39.950Z,15.53
2019-04-10T02:39:20.565Z,14.37
2019-04-10T02:41:42.016Z,13.80
2019-04-10T02:44:12.464Z,15.33
2019-04-10T02:46:42.822Z,13.63
2019-04-10T02:49:14.215Z,14.40
2019-04-10T02:51:45.303Z,15.10
2019-04-10T02:54:15.969Z,14.77
2019-04-10T02:56:49.645Z,15.80
2019-04-10T02:59:21.099Z,14.47
2019-04-10T03:01:51.851Z,15.50
2019-04-10T03:04:22.135Z,15.50
2019-04-10T03:06:53.549Z,14.20
2019-04-10T03:09:37.145Z,15.63
2019-04-10T03:11:57.409Z,16.03
2019-04-10T03:14:29.151Z,15.13
2019-04-10T03:16:59.802Z,15.87
2019-04-10T03:19:29.821Z,15.53
2019-04-10T03:21:59.744Z,14.27
2019-04-10T03:24:29.656Z,15.13
2019-04-10T03:26:59.521Z,14.63
2019-04-10T03:29:29.654Z,14.10
2019-04-10T03:32:18.879Z,16.27
2019-04-10T03:34:51.174Z,13.70
2019-04-10T03:37:22.354Z,13.73
2019-04-10T03:39:53.200Z,14.30
2019-04-10T03:42:23.318Z,13.77
2019-04-10T03:44:53.359Z,13.77
2019-04-10T03:47:23.280Z,14.17
2019-04-10T03:49:54.200Z,14.07
2019-04-10T03:52:25.342Z,12.73
2019-04-10T03:54:55.274Z,12.90
2019-04-10T03:57:25.175Z,11.67
2019-04-10T03:59:55.934Z,11.50
2019-04-10T04:02:25.823Z,12.97
2019-04-10T04:04:55.961Z,12.33
2019-04-10T04:07:27.306Z,12.57
2019-04-10T04:09:57.280Z,13.20
2019-04-10T04:12:27.216Z,11.37
2019-04-10T04:14:57.079Z,10.90
2019-04-10T04:17:26.927Z,11.47
2019-04-10T04:19:56.787Z,11.37
2019-04-10T04:22:26.765Z,11.77
2019-04-10T04:24:56.761Z,10.63
2019-04-10T04:27:27.113Z,11.63
2019-04-10T04:29:57.446Z,11.33
2019-04-10T04:32:27.482Z,10.70
2019-04-10T04:34:57.319Z,10.33
2019-04-10T04:37:28.040Z,9.80
2019-04-10T04:39:58.373Z,11.17
2019-04-10T04:42:28.687Z,10.23
2019-04-10T04:44:58.657Z,10.57
2019-04-10T04:47:28.762Z,9.13
2019-04-10T04:49:59.166Z,10.20
2019-04-10T04:52:29.306Z,10.37
2019-04-10T04:54:59.231Z,10.23
2019-04-10T04:57:29.085Z,11.13
2019-04-10T04:59:59.029Z,10.63
2019-04-10T05:02:28.985Z,11.00
2019-04-10T05:04:58.821Z,10.63
2019-04-10T05:07:29.176Z,10.97
2019-04-10T05:10:00.642Z,10.23
2019-04-10T05:12:31.757Z,9.00
2019-04-10T05:15:02.604Z,9.60
2019-04-10T05:17:33.077Z,10.93
2019-04-10T05:20:03.467Z,9.03
2019-04-10T05:22:34.037Z,9.13
2019-04-10T05:25:04.836Z,11.07
2019-04-10T05:27:35.101Z,10.37
2019-04-10T05:30:06.216Z,11.80
2019-04-10T05:32:36.204Z,11.83
2019-04-10T05:35:08.458Z,11.40
2019-04-10T05:37:38.282Z,10.83
2019-04-10T05:40:08.285Z,11.20
2019-04-10T05:42:39.410Z,10.73
2019-04-10T05:45:11.409Z,11.33
2019-04-10T05:47:42.275Z,12.23
2019-04-10T05:50:12.998Z,9.83
2019-04-10T05:52:43.164Z,10.70
2019-04-10T05:55:13.920Z,13.27
2019-04-10T05:57:44.811Z,9.77
2019-04-10T06:00:16.796Z,11.37
2019-04-10T06:02:46.708Z,10.87
2019-04-10T06:05:16.623Z,14.80
2019-04-10T06:07:47.339Z,17.10
2019-04-10T06:10:17.599Z,18.53
2019-04-10T06:12:48.702Z,23.77
2019-04-10T06:15:19.182Z,27.27
2019-04-10T06:17:49.074Z,31.40
2019-04-10T06:20:19.031Z,34.23
2019-04-10T06:22:48.944Z,36.60
2019-04-10T06:25:21.300Z,37.93
2019-04-10T06:27:50.626Z,37.33
2019-04-10T06:30:20.596Z,37.73
2019-04-10T06:32:51.546Z,38.77
2019-04-10T06:35:22.008Z,38.57
2019-04-10T06:37:52.558Z,36.93
2019-04-10T06:40:25.548Z,40.10
2019-04-10T06:42:56.332Z,36.70
2019-04-10T06:45:25.996Z,41.03
2019-04-10T06:47:55.925Z,38.10
2019-04-10T06:50:26.550Z,39.63
2019-04-10T06:52:57.029Z,41.10
2019-04-10T06:55:27.993Z,38.87
2019-04-10T06:57:59.270Z,38.53
2019-04-10T07:00:30.665Z,37.27
2019-04-10T07:03:01.057Z,38.20
2019-04-10T07:05:37.917Z,36.40
2019-04-10T07:08:10.948Z,37.70
2019-04-10T07:10:47.277Z,40.57
2019-04-10T07:13:08.682Z,39.00
2019-04-10T07:15:38.106Z,38.47
2019-04-10T07:18:14.281Z,38.07
2019-04-10T07:20:42.059Z,40.87
2019-04-10T07:23:15.642Z,38.70
2019-04-10T07:25:46.841Z,35.90
2019-04-10T07:28:17.409Z,36.27
2019-04-10T07:30:47.796Z,36.03
2019-04-10T07:33:19.652Z,38.00
2019-04-10T07:35:49.964Z,36.47
2019-04-10T07:38:21.391Z,37.70
2019-04-10T07:40:52.527Z,38.30
2019-04-10T07:43:26.151Z,37.50
2019-04-10T07:45:56.836Z,38.73
2019-04-10T07:48:27.366Z,38.20
2019-04-10T07:50:57.224Z,38.63
2019-04-10T07:53:27.229Z,37.80
2019-04-10T07:56:05.654Z,37.33
2019-04-10T07:58:29.304Z,36.40
2019-04-10T08:00:59.319Z,37.40
2019-04-10T08:03:29.163Z,36.60
2019-04-10T08:05:58.991Z,37.23
2019-04-10T08:08:29.972Z,37.77
2019-04-10T08:11:00.012Z,36.97
2019-04-10T08:13:30.849Z,37.30
2019-04-10T08:16:01.310Z,36.70
2019-04-10T08:18:31.711Z,35.17
2019-04-10T08:21:02.827Z,37.00
2019-04-10T08:23:33.934Z,37.53
2019-04-10T08:26:03.872Z,37.70
2019-04-10T08:28:34.876Z,34.43
2019-04-10T08:31:06.473Z,37.57
2019-04-10T08:33:36.767Z,35.43
2019-04-10T08:36:07.697Z,30.47
2019-04-10T08:38:38.025Z,33.33
2019-04-10T08:41:08.704Z,38.60
2019-04-10T08:43:39.664Z,39.10
2019-04-10T08:46:10.750Z,39.43
2019-04-10T08:48:41.257Z,40.50
2019-04-10T08:51:12.412Z,41.40
2019-04-10T08:53:42.849Z,41.60
2019-04-10T08:56:13.042Z,40.07
2019-04-10T08:58:43.326Z,43.10
2019-04-10T09:01:13.394Z,41.47
2019-04-10T09:03:43.459Z,43.93
2019-04-10T09:06:13.406Z,43.80
2019-04-10T09:08:43.628Z,43.43
2019-04-10T09:11:14.712Z,43.40
2019-04-10T09:13:46.413Z,42.13
2019-04-10T09:16:16.594Z,44.57
2019-04-10T09:18:47.644Z,43.13
2019-04-10T09:21:17.843Z,43.80
2019-04-10T09:23:52.782Z,42.60
2019-04-10T09:26:20.299Z,43.20
2019-04-10T09:28:50.799Z,44.77
2019-04-10T09:31:21.785Z,42.87
2019-04-10T09:33:51.738Z,43.90
2019-04-10T09:36:21.673Z,43.43
2019-04-10T09:38:52.718Z,44.33
2019-04-10T09:41:22.858Z,43.03
2019-04-10T09:43:52.699Z,44.30
2019-04-10T09:46:22.741Z,44.20
2019-04-10T09:48:52.749Z,44.00
2019-04-10T09:51:23.579Z,42.40
2019-04-10T09:53:54.704Z,44.00
2019-04-10T09:56:25.509Z,45.97
2019-04-10T09:58:56.668Z,44.30
2019-04-10T10:01:27.595Z,45.60
2019-04-10T10:03:59.166Z,47.10
2019-04-10T10:06:34.447Z,44.67
2019-04-10T10:09:01.012Z,44.57
2019-04-10T10:11:32.578Z,44.90
2019-04-10T10:14:02.709Z,44.93
2019-04-10T10:16:33.713Z,43.23
2019-04-10T10:19:03.842Z,45.30
2019-04-10T10:21:34.619Z,44.03
2019-04-10T10:24:07.043Z,43.90
2019-04-10T10:26:37.033Z,44.30
2019-04-10T10:29:07.140Z,43.23
2019-04-10T10:31:38.045Z,44.23
2019-04-10T10:34:08.150Z,44.90
2019-04-10T10:36:41.958Z,44.00
2019-04-10T10:39:19.029Z,43.20
2019-04-10T10:41:51.087Z,44.53
2019-04-10T10:44:21.984Z,45.17
2019-04-10T10:46:51.953Z,44.50
2019-04-10T10:49:23.052Z,43.00
2019-04-10T10:51:53.341Z,43.33
2019-04-10T10:54:25.038Z,42.97
2019-04-10T10:56:55.601Z,41.97
2019-04-10T10:59:25.461Z,42.33
2019-04-10T11:01:55.976Z,43.57
2019-04-10T11:04:26.044Z,42.87
2019-04-10T11:07:00.441Z,43.40
2019-04-10T11:09:28.523Z,44.37
2019-04-10T11:11:59.879Z,43.50
2019-04-10T11:14:30.097Z,44.37
2019-04-10T11:17:01.114Z,44.30
2019-04-10T11:19:31.338Z,42.97
2019-04-10T11:22:01.371Z,44.13
2019-04-10T11:24:33.256Z,42.60
2019-04-10T11:27:04.239Z,46.33
2019-04-10T11:29:34.949Z,45.63
2019-04-10T11:32:06.801Z,45.17
2019-04-10T11:34:38.145Z,43.60
2019-04-10T11:37:23.379Z,45.67
2019-04-10T11:39:43.306Z,45.33
2019-04-10T11:42:12.191Z,45.13
2019-04-10T11:44:45.346Z,45.57
2019-04-10T11:47:14.904Z,44.63
2019-04-10T11:49:46.588Z,45.77
2019-04-10T11:52:19.078Z,45.20
2019-04-10T11:54:49.167Z,45.20
2019-04-10T11:57:20.424Z,46.30
2019-04-10T11:59:50.668Z,47.37
2019-04-10T12:04:58.722Z,47.57
2019-04-10T12:07:55.060Z,45.37
2019-04-10T12:12:28.456Z,47.10
2019-04-10T12:14:59.667Z,47.00
2019-04-10T12:17:29.835Z,46.97
2019-04-10T12:20:00.540Z,45.07
2019-04-10T12:22:31.897Z,44.13
2019-04-10T12:25:02.970Z,42.23
2019-04-10T12:27:33.497Z,44.30
2019-04-10T12:30:04.706Z,44.17
2019-04-10T12:32:34.881Z,44.23
2019-04-10T12:35:05.208Z,44.30
2019-04-10T12:37:35.142Z,45.70
2019-04-10T12:40:06.185Z,45.00
2019-04-10T12:42:36.532Z,43.33
2019-04-10T12:45:08.265Z,41.70
2019-04-10T12:47:38.256Z,43.13
2019-04-10T12:50:09.132Z,41.70
2019-04-10T12:52:39.064Z,42.00
2019-04-10T12:55:10.203Z,41.67
2019-04-10T12:57:41.340Z,40.50
2019-04-10T13:00:13.909Z,40.67
2019-04-10T13:02:44.866Z,40.07
2019-04-10T13:05:15.337Z,40.40
2019-04-10T13:07:45.584Z,40.10
2019-04-10T13:10:15.866Z,40.77
2019-04-10T13:12:45.832Z,38.17
2019-04-10T13:15:16.018Z,39.53
2019-04-10T13:17:46.901Z,38.43
2019-04-10T13:20:17.746Z,37.97
2019-04-10T13:22:48.541Z,37.57
2019-04-10T13:25:18.682Z,37.30
2019-04-10T13:27:48.522Z,39.70
2019-04-10T13:30:18.812Z,39.97
2019-04-10T13:32:49.992Z,38.07
2019-04-10T13:35:20.045Z,39.23
2019-04-10T13:37:50.652Z,38.63
2019-04-10T13:40:21.574Z,39.40
2019-04-10T13:42:51.660Z,39.03
2019-04-10T13:45:21.677Z,38.67
2019-04-10T13:47:51.788Z,40.57
2019-04-10T13:50:22.202Z,38.50
2019-04-10T13:52:54.077Z,39.27
2019-04-10T13:55:24.816Z,38.30
2019-04-10T13:57:55.045Z,40.97
2019-04-10T14:00:35.655Z,40.87
2019-04-10T14:03:06.223Z,39.57
2019-04-10T14:05:36.939Z,40.20
2019-04-10T14:08:08.399Z,42.37
2019-04-10T14:10:41.203Z,40.53
2019-04-10T14:13:10.136Z,41.30
2019-04-10T14:15:40.144Z,42.43
2019-04-10T14:18:10.279Z,42.90
2019-04-10T14:20:41.527Z,42.60
2019-04-10T14:23:26.524Z,42.37
2019-04-10T14:26:16.164Z,41.87
2019-04-10T14:28:46.749Z,41.60
2019-04-10T14:31:28.799Z,43.30
2019-04-10T14:33:58.829Z,42.60
2019-04-10T14:36:29.805Z,43.93
2019-04-10T14:39:10.220Z,43.80
2019-04-10T14:41:36.015Z,43.23
2019-04-10T14:44:08.340Z,43.50
2019-04-10T14:46:38.353Z,44.13
2019-04-10T14:49:09.009Z,43.53
2019-04-10T14:51:38.994Z,44.40
2019-04-10T14:54:09.622Z,45.40
2019-04-10T14:56:40.183Z,44.67
2019-04-10T14:59:10.177Z,44.90
2019-04-10T15:01:40.011Z,43.23
2019-04-10T15:04:10.969Z,45.47
2019-04-10T15:06:41.731Z,43.47
2019-04-10T15:09:24.028Z,45.47
2019-04-10T15:11:50.997Z,45.30
2019-04-10T15:14:21.618Z,45.17
2019-04-10T15:16:56.458Z,46.00
2019-04-10T15:19:24.874Z,45.30
2019-04-10T15:21:57.530Z,46.30
2019-04-10T15:24:27.942Z,44.53
2019-04-10T15:26:57.986Z,45.27
2019-04-10T15:29:28.143Z,45.07
2019-04-10T15:31:58.125Z,45.20
2019-04-10T15:34:28.286Z,45.13
2019-04-10T15:36:58.554Z,45.00
2019-04-10T15:39:33.874Z,46.23
2019-04-10T15:42:00.185Z,44.33
2019-04-10T15:44:30.199Z,44.23
2019-04-10T15:47:12.521Z,43.90
2019-04-10T15:49:32.437Z,47.07
2019-04-10T15:52:03.821Z,46.23
2019-04-10T15:54:34.002Z,47.17
2019-04-10T15:57:04.674Z,46.77
2019-04-10T15:59:34.747Z,46.60
2019-04-10T16:02:15.364Z,46.87
2019-04-10T16:04:45.614Z,46.17
2019-04-10T16:07:16.544Z,44.13
2019-04-10T16:09:51.650Z,47.13
2019-04-10T16:12:20.779Z,48.77
2019-04-10T16:14:50.771Z,45.33
2019-04-10T16:17:51.303Z,46.40
2019-04-10T16:20:34.097Z,48.93
2019-04-10T16:23:12.837Z,46.70
2019-04-10T16:25:46.832Z,47.80
2019-04-10T16:28:17.843Z,48.33
2019-04-10T16:30:48.643Z,45.37
2019-04-10T16:33:18.877Z,50.00
2019-04-10T16:35:48.995Z,46.57
2019-04-10T16:38:19.030Z,46.70
2019-04-10T16:40:49.020Z,46.40
2019-04-10T16:43:20.125Z,47.17
2019-04-10T16:45:51.408Z,48.80
2019-04-10T16:48:21.412Z,50.97
2019-04-10T16:50:51.964Z,49.57
2019-04-10T16:53:22.249Z,51.30
2019-04-10T16:55:53.362Z,49.50
2019-04-10T16:58:23.902Z,49.67
2019-04-10T17:00:53.921Z,51.50
2019-04-10T17:03:23.905Z,54.73
2019-04-10T17:05:53.887Z,53.43
2019-04-10T17:08:23.935Z,56.80
2019-04-10T17:10:53.868Z,57.17
2019-04-10T17:13:24.611Z,59.17
2019-04-10T17:15:55.611Z,62.37
2019-04-10T17:18:27.476Z,65.80
2019-04-10T17:20:57.415Z,64.33
2019-04-10T17:23:27.479Z,64.53
2019-04-10T17:25:58.271Z,65.57
2019-04-10T17:28:28.429Z,66.43
2019-04-10T17:30:58.533Z,70.67
2019-04-10T17:33:28.389Z,74.00
2019-04-10T17:36:00.165Z,71.53
2019-04-10T17:38:30.935Z,70.77
2019-04-10T17:41:04.150Z,72.57
2019-04-10T17:43:35.074Z,72.90
2019-04-10T17:46:05.175Z,73.00
2019-04-10T17:48:37.249Z,77.67
2019-04-10T17:51:07.957Z,76.73
2019-04-10T17:53:37.877Z,72.53
2019-04-10T17:56:08.410Z,74.20
2019-04-10T17:58:38.460Z,78.67
2019-04-10T18:01:12.529Z,76.93
2019-04-10T18:03:50.819Z,79.13
2019-04-10T18:06:15.208Z,81.43
2019-04-10T18:08:45.311Z,79.03
2019-04-10T18:11:16.216Z,73.87
2019-04-10T18:13:47.213Z,76.73
2019-04-10T18:16:17.896Z,74.60
2019-04-10T18:18:48.615Z,75.67
2019-04-10T18:21:18.606Z,78.07
2019-04-10T18:23:49.526Z,76.50
2019-04-10T18:26:21.020Z,74.83
2019-04-10T18:28:52.010Z,74.97
2019-04-10T18:31:23.993Z,76.97
2019-04-10T18:33:53.563Z,76.97
2019-04-10T18:36:24.348Z,76.03
2019-04-10T18:38:54.492Z,70.80
2019-04-10T18:41:24.477Z,71.20
2019-04-10T18:43:54.586Z,75.70
2019-04-10T18:46:25.481Z,75.17
2019-04-10T18:48:55.436Z,76.90
2019-04-10T18:51:25.815Z,76.33
2019-04-10T18:53:55.761Z,78.03
2019-04-10T18:56:25.765Z,74.63
2019-04-10T18:59:10.870Z,76.13
2019-04-10T19:01:53.389Z,72.50
2019-04-10T19:04:45.582Z,69.40
2019-04-10T19:07:15.662Z,71.23
2019-04-10T19:09:45.585Z,70.93
2019-04-10T19:12:16.697Z,73.17
2019-04-10T19:14:46.788Z,76.50
2019-04-10T19:17:17.493Z,76.27
2019-04-10T19:19:48.451Z,75.80
2019-04-10T19:22:20.342Z,75.67
2019-04-10T19:24:50.507Z,76.03
2019-04-10T19:27:20.450Z,73.73
2019-04-10T19:29:50.771Z,76.87
2019-04-10T19:32:24.727Z,77.00
2019-04-10T19:34:56.833Z,78.17
2019-04-10T19:37:26.897Z,77.17
2019-04-10T19:39:56.901Z,73.90
2019-04-10T19:42:27.106Z,75.60
2019-04-10T19:44:57.331Z,77.17
2019-04-10T19:47:28.435Z,83.07
2019-04-10T19:49:59.247Z,77.80
2019-04-10T19:52:29.315Z,81.77
2019-04-10T19:54:59.625Z,85.83
2019-04-10T19:57:29.802Z,79.50
2019-04-10T20:00:00.064Z,75.67
2019-04-10T20:02:30.927Z,78.80
2019-04-10T20:05:01.241Z,82.27
2019-04-10T20:07:33.215Z,79.80
2019-04-10T20:10:03.859Z,76.57
2019-04-10T20:12:35.605Z,79.77
2019-04-10T20:15:06.436Z,79.10
2019-04-10T20:17:36.375Z,82.13
2019-04-10T20:20:06.998Z,79.10
2019-04-10T20:22:37.062Z,79.93
2019-04-10T20:25:08.285Z,76.83
2019-04-10T20:27:38.354Z,79.70
2019-04-10T20:30:10.034Z,77.17
2019-04-10T20:32:40.368Z,79.43
2019-04-10T20:35:10.360Z,79.50
2019-04-10T20:37:40.201Z,79.43
2019-04-10T20:40:10.222Z,76.13
2019-04-10T20:42:40.454Z,75.40
2019-04-10T20:45:11.375Z,77.37
2019-04-10T20:47:41.543Z,79.03
2019-04-10T20:50:12.022Z,80.13
2019-04-10T20:52:43.167Z,80.13
2019-04-10T20:55:13.448Z,80.57
2019-04-10T20:57:43.843Z,79.10
2019-04-10T21:00:34.294Z,78.90
2019-04-10T21:03:04.261Z,79.80
2019-04-10T21:05:34.184Z,79.63
2019-04-10T21:08:04.242Z,73.57
2019-04-10T21:10:34.320Z,77.00
2019-04-10T21:13:04.524Z,82.83
2019-04-10T21:15:35.459Z,80.00
2019-04-10T21:18:06.788Z,79.93
2019-04-10T21:20:36.683Z,83.40
2019-04-10T21:23:06.682Z,82.83
2019-04-10T21:25:36.586Z,79.40
2019-04-10T21:28:06.510Z,81.00
2019-04-10T21:30:58.822Z,81.53
2019-04-10T21:33:34.654Z,80.40
2019-04-10T21:36:04.986Z,80.13
2019-04-10T21:38:34.940Z,81.03
2019-04-10T21:41:06.341Z,79.50
2019-04-10T21:43:36.816Z,79.07
2019-04-10T21:46:06.740Z,78.23
2019-04-10T21:48:37.238Z,78.17
2019-04-10T21:51:07.316Z,79.20
2019-04-10T21:53:37.354Z,51.53
2019-04-10T21:56:08.347Z,50.43
2019-04-10T21:58:38.855Z,44.17
2019-04-10T22:01:13.612Z,47.20
2019-04-10T22:03:43.652Z,46.27
2019-04-10T22:06:31.273Z,48.70
2019-04-10T22:09:39.053Z,49.20
2019-04-10T22:12:25.696Z,43.47
2019-04-10T22:14:50.270Z,47.17
2019-04-10T22:17:20.534Z,46.90
2019-04-10T22:19:50.788Z,47.07
2019-04-10T22:22:20.718Z,47.37
2019-04-10T22:24:50.655Z,45.97
2019-04-10T22:27:20.661Z,44.97
2019-04-10T22:29:50.688Z,50.10
2019-04-10T22:32:20.748Z,48.07
2019-04-10T22:34:50.665Z,44.40
2019-04-10T22:37:21.449Z,44.27
2019-04-10T22:39:52.534Z,46.17
2019-04-10T22:42:37.924Z,42.87
2019-04-10T22:44:56.105Z,45.13
2019-04-10T22:47:27.405Z,47.43
2019-04-10T22:49:57.784Z,49.90
2019-04-10T22:52:28.261Z,46.93
2019-04-10T22:54:59.319Z,56.30
2019-04-10T22:57:29.366Z,55.07
2019-04-10T22:59:59.516Z,56.03
2019-04-10T23:02:30.093Z,57.87
2019-04-10T23:04:59.949Z,56.00
2019-04-10T23:07:30.213Z,57.60
2019-04-10T23:10:00.355Z,56.20
2019-04-10T23:12:30.310Z,58.50
2019-04-10T23:15:00.852Z,56.37
2019-04-10T23:17:30.831Z,57.60
2019-04-10T23:20:00.778Z,57.97
2019-04-10T23:22:31.404Z,60.20
2019-04-10T23:25:02.785Z,58.20
2019-04-10T23:27:33.551Z,56.97
2019-04-10T23:30:05.594Z,56.07
2019-04-10T23:32:35.466Z,57.03
2019-04-10T23:35:05.571Z,56.37
2019-04-10T23:37:37.314Z,56.70
2019-04-10T23:40:08.437Z,54.67
2019-04-10T23:42:38.317Z,55.60
2019-04-10T23:45:09.167Z,54.83
2019-04-10T23:47:40.003Z,56.97
2019-04-10T23:50:12.158Z,55.67
2019-04-10T23:52:42.282Z,54.90
2019-04-10T23:55:13.371Z,56.93
2019-04-10T23:57:43.637Z,55.43
